Latest Weather Observations for Ngayawili (Elcho Island)

IDD60801

Issued at 11:05 pm CST Wednesday 22 October 2014 (issued every 30 minutes, with the page automatically refreshed every 10 minutes)

About weather observations | Map of weather stations | Latest weather observations for NT | Other Formats
Station Details ID: 014517 Name: NGAYAWILI Lat: -12.00 Lon: 135.57 Height: 8.1 m
Data from the previous 72 hours. | See also: Recent months at Ngayawili (Elcho Island)
Date/Time
CST
Temp
°C
App
Temp
°C
Dew
Point
Rel
Hum
%
Delta-T
°C
Wind Press
QNH
hPa
Press
MSL
hPa
Rain
since 9 am
mm
Dir
 
Spd
km/h
Gust
km/h
Spd
kts
Gust
kts
22/11:00pm 25.2 30.5 25.2 100 0.0 E 7 13 4 7 - 1013.1 0.0
22/10:30pm 25.6 30.7 25.6 100 0.0 ENE 9 15 5 8 - 1013.1 0.0
22/10:00pm 25.9 30.8 25.9 100 0.0 E 11 20 6 11 - 1013.9 0.0
22/09:30pm 26.0 31.0 26.0 100 0.0 E 11 19 6 10 - 1013.6 0.0
22/09:00pm 26.0 31.4 26.0 100 0.0 E 9 13 5 7 - 1011.8 0.0
22/08:30pm 26.1 31.9 26.1 100 0.0 E 7 13 4 7 - 1012.9 0.0
22/08:00pm 26.3 31.9 26.3 100 0.0 E 9 17 5 9 - 1012.4 0.0
22/07:30pm 26.7 31.8 26.7 100 0.0 ENE 13 20 7 11 - 1010.5 0.0
22/07:00pm 27.1 31.3 26.0 94 0.8 NE 15 26 8 14 - 1011.7 0.0
22/06:30pm 27.6 31.6 25.6 89 1.4 NE 15 22 8 12 - 1011.5 0.0
22/06:00pm 28.2 30.7 24.4 80 2.6 NE 19 28 10 15 - 1011.2 0.0
22/05:30pm 29.2 32.2 24.7 77 3.1 NE 17 30 9 16 - 1011.1 0.0
22/05:00pm 29.6 32.9 26.0 81 2.6 NE 20 32 11 17 - 1008.6 0.0
22/04:30pm 30.1 33.0 26.5 81 2.6 NNE 24 33 13 18 - 1009.9 0.0
22/04:00pm 30.9 33.6 27.3 81 2.6 N 28 35 15 19 - 1011.0 0.0
22/03:30pm 30.3 32.8 28.1 88 1.6 N 32 41 17 22 - 1009.0 0.0
22/03:00pm 31.0 34.0 28.8 88 1.6 N 32 37 17 20 - 1009.3 0.0
22/02:30pm 31.6 33.5 26.8 75 3.5 N 30 35 16 19 - 1011.5 0.0
22/02:00pm 32.2 34.9 27.9 78 3.1 N 30 35 16 19 - 1011.9 0.0
22/01:30pm 31.3 33.1 25.4 71 4.2 N 26 33 14 18 - 1012.5 0.0
22/01:00pm 31.5 33.8 24.1 65 5.2 NE 19 33 10 18 - 1013.1 0.0
22/12:30pm 31.2 33.2 25.1 70 4.3 N 24 33 13 18 - 1013.5 0.0
22/12:00pm 31.6 35.3 25.7 71 4.2 NE 17 28 9 15 - 1014.0 0.0
22/11:30am 31.8 34.6 25.2 68 4.7 E 20 30 11 16 - 1014.5 0.0
22/11:00am 30.8 36.0 29.2 91 1.2 N 22 32 12 17 - 1015.0 0.0
22/10:30am 30.5 34.2 27.7 85 2.0 N 24 33 13 18 - 1014.4 0.0
22/10:00am 29.3 33.5 28.4 95 0.7 N 24 30 13 16 - 1015.5 0.0
22/09:30am 30.0 34.5 27.8 88 1.6 N 20 24 11 13 - 1015.5 0.0
22/09:00am 29.4 35.5 27.0 87 1.7 E 9 15 5 8 - 1014.4 0.0
22/08:30am 28.2 34.4 28.2 100 0.0 ENE 13 20 7 11 - 1014.2 0.0
22/08:00am 26.9 32.1 26.9 100 0.0 NE 13 20 7 11 - 1014.2 0.0
22/07:30am 24.3 29.0 24.3 100 0.0 ENE 7 11 4 6 - 1013.7 0.0
22/07:00am 23.0 26.9 23.0 100 0.0 E 7 9 4 5 - 1014.2 0.0
22/06:30am 21.3 24.3 21.3 100 0.0 E 7 7 4 4 - 1013.7 0.0
22/06:00am 21.0 23.9 21.0 100 0.0 E 7 9 4 5 - 1013.1 0.0
22/05:30am 20.7 23.6 20.7 100 0.0 E 6 7 3 4 - 1013.6 0.0
22/05:00am 21.0 23.9 21.0 100 0.0 E 7 9 4 5 - 1013.0 0.0
22/04:30am 21.4 24.1 21.4 100 0.0 E 9 9 5 5 - 1012.5 0.0
22/04:00am 21.2 25.5 21.2 100 0.0 CALM 0 0 0 0 - 1012.7 0.0
22/03:30am 21.5 26.0 21.5 100 0.0 CALM 0 0 0 0 - 1012.8 0.0
22/03:00am 21.8 26.4 21.8 100 0.0 CALM 0 0 0 0 - 1013.3 0.0
22/02:30am 22.3 26.8 22.3 100 0.0 E 2 7 1 4 - 1012.4 0.0
22/02:00am 22.7 27.4 22.7 100 0.0 E 2 6 1 3 - 1012.9 0.0
22/01:30am 23.7 28.2 23.7 100 0.0 E 6 9 3 5 - 1013.5 0.0
22/01:00am 24.3 28.6 24.3 100 0.0 E 9 13 5 7 - 1014.2 0.0
22/12:30am 24.6 29.5 24.6 100 0.0 E 7 9 4 5 - 1014.5 0.0
22/12:00am 25.2 30.5 25.2 100 0.0 E 7 11 4 6 - 1014.0 0.0
 
Date/Time
CST
Temp
°C
App
Temp
°C
Dew
Point
Rel
Hum
%
Delta-T
°C
Wind Press
QNH
hPa
Press
MSL
hPa
Rain
since 9 am
mm
Dir
 
Spd
km/h
Gust
km/h
Spd
kts
Gust
kts
21/11:30pm 25.6 30.7 25.6 100 0.0 ESE 9 15 5 8 - 1014.8 0.0
21/11:00pm 25.7 31.3 25.7 100 0.0 E 7 9 4 5 - 1014.7 0.0
21/10:30pm 25.7 31.3 25.7 100 0.0 E 7 13 4 7 - 1014.3 0.0
21/10:00pm 25.7 30.9 25.7 100 0.0 E 9 13 5 7 - 1014.6 0.0
21/09:30pm 25.8 31.1 25.8 100 0.0 E 9 13 5 7 - 1014.2 0.0
21/09:00pm 26.0 31.4 26.0 100 0.0 E 9 15 5 8 - 1012.8 0.0
21/08:30pm 26.3 31.9 26.3 100 0.0 ENE 9 13 5 7 - 1013.4 0.0
21/08:00pm 26.6 32.4 26.6 100 0.0 ENE 9 19 5 10 - 1013.1 0.0
21/07:30pm 27.0 32.3 27.0 100 0.0 ENE 13 19 7 10 - 1012.9 0.0
21/07:00pm 27.3 32.8 27.3 100 0.0 ENE 13 20 7 11 - 1012.7 0.0
21/06:30pm 27.6 33.3 27.6 100 0.0 NE 13 20 7 11 - 1012.5 0.0
21/06:00pm 28.5 33.7 26.9 91 1.1 NE 13 22 7 12 - 1010.3 0.0
21/05:30pm 29.2 31.9 26.2 84 2.1 NNE 24 35 13 19 - 1012.1 0.0
21/05:00pm 29.9 33.4 26.3 81 2.6 NNE 20 32 11 17 - 1009.6 0.0
21/04:30pm 30.0 32.2 26.0 79 2.8 NNE 26 35 14 19 - 1011.0 0.0
21/04:00pm 30.5 32.3 26.0 77 3.2 NNE 28 39 15 21 - 1011.9 0.0
21/03:30pm 30.6 32.6 25.7 75 3.5 NNE 26 35 14 19 - 1012.0 0.0
21/03:00pm 31.6 32.9 26.4 74 3.7 NNE 32 43 17 23 - 1010.0 0.0
21/02:30pm 31.4 33.0 25.7 71 4.1 NNE 28 37 15 20 - 1012.5 0.0
21/02:00pm 31.2 34.2 27.3 80 2.8 N 26 33 14 18 - 1013.0 0.0
21/01:30pm 29.8 34.3 26.4 82 2.4 NE 15 28 8 15 - 1012.7 0.0
21/01:00pm 30.1 35.3 26.9 83 2.3 NE 13 26 7 14 - 1014.1 0.0
21/12:30pm 30.1 34.5 27.3 85 2.0 N 19 24 10 13 - 1014.6 0.0
21/12:00pm 30.5 33.2 26.2 78 3.1 NNE 24 30 13 16 - 1013.9 0.0
21/11:30am 30.3 33.5 25.8 77 3.2 NNE 20 30 11 16 - 1014.4 0.0
21/11:00am 29.9 34.5 25.4 77 3.2 NE 11 22 6 12 - 1015.7 0.0
21/10:30am 31.2 35.4 26.0 74 3.7 ENE 15 32 8 17 - 1015.2 0.0
21/10:00am 30.6 35.3 26.7 80 2.8 ENE 15 24 8 13 - 1015.9 0.0
21/09:30am 29.2 33.7 25.8 82 2.4 NE 13 20 7 11 - 1015.9 0.0
21/09:00am 29.2 34.4 26.8 87 1.7 E 13 22 7 12 - 1015.6 0.0
21/08:30am 28.7 35.8 28.5 99 0.1 E 9 17 5 9 - 1015.6 0.0
21/08:00am 27.0 32.7 27.0 100 0.0 ESE 11 17 6 9 - 1015.2 0.0
21/07:30am 25.1 29.9 25.1 100 0.0 E 9 13 5 7 - 1014.4 0.0
21/07:00am 23.0 26.9 23.0 100 0.0 E 7 11 4 6 - 1014.4 0.0
21/06:30am 20.6 23.3 20.6 100 0.0 E 7 9 4 5 - 1014.1 0.0
21/06:00am 20.5 23.1 20.5 100 0.0 E 7 9 4 5 - 1013.6 0.0
21/05:30am 20.5 23.3 20.5 100 0.0 E 6 7 3 4 - 1013.8 0.0
21/05:00am 21.3 25.7 21.3 100 0.0 CALM 0 0 0 0 - 1013.2 0.0
21/04:30am 22.2 25.7 22.2 100 0.0 ESE 7 9 4 5 - 1013.3 0.0
21/04:00am 22.7 26.1 22.7 100 0.0 ESE 9 11 5 6 - 1013.5 0.0
21/03:30am 23.2 26.5 23.2 100 0.0 SE 11 15 6 8 - 1013.5 0.0
21/03:00am 23.6 27.1 23.6 100 0.0 SE 11 17 6 9 - 1012.9 0.0
21/02:30am 23.9 27.2 23.9 100 0.0 ESE 13 20 7 11 - 1013.6 0.0
21/02:00am 24.1 27.5 24.1 100 0.0 ESE 13 17 7 9 - 1013.8 0.0
21/01:30am 24.3 27.9 24.3 100 0.0 SE 13 20 7 11 - 1016.9 0.0
21/01:00am 24.5 28.2 24.5 100 0.0 ESE 13 20 7 11 - 1014.2 0.0
21/12:30am 24.6 28.3 24.6 100 0.0 ESE 13 20 7 11 - 1014.4 0.0
21/12:00am 24.9 28.4 24.9 100 0.0 SE 15 22 8 12 - 1013.7 0.0
 
Date/Time
CST
Temp
°C
App
Temp
°C
Dew
Point
Rel
Hum
%
Delta-T
°C
Wind Press
QNH
hPa
Press
MSL
hPa
Rain
since 9 am
mm
Dir
 
Spd
km/h
Gust
km/h
Spd
kts
Gust
kts
20/11:30pm 25.1 29.1 25.1 100 0.0 SE 13 20 7 11 - 1014.6 0.0
20/11:00pm 25.4 29.6 24.7 96 0.5 ESE 11 17 6 9 - 1014.7 0.0
20/10:30pm 25.8 29.4 24.4 92 1.0 ESE 13 22 7 12 - 1013.4 0.0
20/10:00pm 25.9 30.0 24.5 92 1.0 ESE 11 17 6 9 - 1014.3 0.0
20/09:30pm 25.6 31.1 25.6 100 0.0 E 7 9 4 5 - 1013.9 0.0
20/09:00pm 26.0 31.4 26.0 100 0.0 E 9 15 5 8 - 1013.3 0.0
20/08:30pm 26.1 31.6 26.1 100 0.0 E 9 15 5 8 - 1012.7 0.0
20/08:00pm 26.5 32.0 26.2 98 0.2 ENE 9 13 5 7 - 1012.4 0.0
20/07:30pm 26.9 31.7 26.2 96 0.5 ENE 13 19 7 10 - 1012.1 0.0
20/07:00pm 27.0 31.6 25.4 91 1.1 ENE 11 20 6 11 - 1011.8 0.0
20/06:30pm 27.4 31.9 25.2 88 1.5 ENE 11 17 6 9 - 1011.3 0.0
20/06:00pm 28.0 31.5 25.4 86 1.8 ENE 17 28 9 15 - 1009.4 0.0
20/05:30pm 28.6 31.7 25.4 83 2.3 NE 19 26 10 14 - 1010.7 0.0
20/05:00pm 29.3 32.6 25.7 81 2.5 NE 19 28 10 15 - 1008.4 0.0
20/04:30pm 30.2 33.6 26.1 79 2.9 NE 20 28 11 15 - 1008.3 0.0
20/04:00pm 31.2 34.0 25.8 73 3.8 NE 22 35 12 19 - 1010.7 0.0
20/03:30pm 31.4 34.1 26.2 74 3.7 NNE 24 33 13 18 - 1010.9 0.0
20/03:00pm 32.0 34.7 26.3 72 4.1 NNE 24 33 13 18 - 1008.8 0.0
20/02:30pm 31.8 34.2 26.4 73 3.9 NNE 26 35 14 19 - 1011.6 0.0
20/02:00pm 31.6 35.3 25.7 71 4.2 NE 17 30 9 16 - 1010.4 0.0
20/01:30pm 31.4 34.2 25.0 69 4.5 NE 19 30 10 16 - 1013.8 0.0
20/01:00pm 31.8 34.5 24.7 66 5.0 E 19 30 10 16 - 1013.2 0.0
20/12:30pm 31.9 34.9 24.7 65 5.1 E 17 28 9 15 - 1013.7 0.0
20/12:00pm 31.8 36.0 25.4 69 4.5 ESE 13 24 7 13 - 1014.3 0.0
20/11:30am 31.3 34.9 25.6 71 4.0 ESE 17 26 9 14 - 1014.8 0.0
20/11:00am 30.7 33.7 25.3 73 3.8 SE 19 30 10 16 - 1015.0 0.0
20/10:30am 30.4 34.1 25.2 74 3.7 E 15 28 8 15 - 1015.2 0.0
20/10:00am 29.8 33.2 25.3 77 3.2 E 17 28 9 15 - 1015.4 0.0
20/09:30am 29.0 33.4 26.2 85 2.0 E 15 26 8 14 - 1015.2 0.0
20/09:00am 28.4 33.7 27.5 95 0.6 E 15 24 8 13 - 1015.0 0.0
20/08:30am 27.3 32.4 27.3 100 0.0 ESE 15 24 8 13 - 1015.3 0.0
20/08:00am 26.2 30.6 26.2 100 0.0 SE 15 24 8 13 - 1015.0 0.0
20/07:30am 25.3 29.9 25.3 100 0.0 ESE 11 20 6 11 - 1015.0 0.0
20/07:00am 23.9 28.4 23.9 100 0.0 ESE 7 11 4 6 - 1014.4 0.0
20/06:30am 23.0 26.6 23.0 100 0.0 ESE 9 11 5 6 - 1013.6 0.0
20/06:00am 22.6 25.9 22.6 100 0.0 ESE 9 11 5 6 - 1013.2 0.0
20/05:30am 22.6 25.9 22.6 100 0.0 ESE 9 11 5 6 - 1013.0 0.0
20/05:00am 22.6 25.9 22.6 100 0.0 ESE 9 11 5 6 - 1013.0 0.0
20/04:30am 22.7 26.1 22.7 100 0.0 ESE 9 11 5 6 - 1012.9 0.0
20/04:00am 22.9 26.4 22.9 100 0.0 ESE 9 13 5 7 - 1012.1 0.0
20/03:30am 22.9 26.4 22.9 100 0.0 SE 9 15 5 8 - 1012.7 0.0
20/03:00am 23.1 26.3 23.1 100 0.0 SSE 11 15 6 8 - 1012.5 0.0
20/02:30am 23.7 26.5 23.7 100 0.0 SSE 15 20 8 11 - 1012.6 0.0
20/02:00am 23.8 27.1 23.8 100 0.0 SE 13 17 7 9 - 1012.3 0.0
20/01:30am 23.7 27.3 23.7 100 0.0 SE 11 13 6 7 - 1012.3 0.0
20/01:00am 23.9 28.0 23.9 100 0.0 SE 9 11 5 6 - 1013.1 0.0
20/12:30am 24.4 28.8 24.4 100 0.0 SE 9 11 5 6 - 1013.5 0.0
20/12:00am 24.5 28.9 24.5 100 0.0 ESE 9 17 5 9 - 1013.0 0.0
 
Date/Time
CST
Temp
°C
App
Temp
°C
Dew
Point
Rel
Hum
%
Delta-T
°C
Wind Press
QNH
hPa
Press
MSL
hPa
Rain
since 9 am
mm
Dir
 
Spd
km/h
Gust
km/h
Spd
kts
Gust
kts
19/11:30pm 24.9 29.2 24.9 100 0.0 SE 11 19 6 10 - 1013.9 0.0

Other Formats:

Comma delimited format used in spreadsheet applications
http://www.bom.gov.au/fwo/IDD60801/IDD60801.95146.axf

JavaScript Object Notation format (JSON) in row-major order
http://www.bom.gov.au/fwo/IDD60801/IDD60801.95146.json